createdAt,value
2016-12-08T09:24:20.806Z,99.98
2016-12-08T09:25:02.938Z,99.98
2016-12-08T09:25:43.470Z,99.99
2016-12-08T09:26:23.927Z,99.99
2016-12-08T09:27:04.433Z,99.99
2016-12-08T09:27:45.011Z,99.99
2016-12-08T09:28:25.393Z,99.79
2016-12-08T09:29:05.863Z,99.22
2016-12-08T09:29:46.362Z,99.6
2016-12-08T09:30:26.835Z,99.5
2016-12-08T09:31:09.311Z,99.6
2016-12-08T09:31:50.463Z,99.69
2016-12-08T09:32:33.419Z,99.69
2016-12-08T09:33:13.942Z,99.69
2016-12-08T09:33:54.434Z,99.41
2016-12-08T09:34:34.886Z,99.79
2016-12-08T09:35:15.396Z,99.41
2016-12-08T09:35:55.890Z,99.31
2016-12-08T09:36:37.078Z,99.22
2016-12-08T09:37:17.847Z,99.22
2016-12-08T09:37:58.339Z,99.5
2016-12-08T09:38:38.930Z,99.41
2016-12-08T09:39:19.518Z,98.74
2016-12-08T09:40:00.021Z,98.74
2016-12-08T09:40:42.286Z,98.83
2016-12-08T09:41:22.817Z,98.83
2016-12-08T09:42:03.285Z,98.74
2016-12-08T09:42:43.839Z,99.22
2016-12-08T09:43:24.372Z,99.02
2016-12-08T09:44:04.850Z,99.12
2016-12-08T09:44:45.336Z,99.12
2016-12-08T09:45:25.773Z,99.02
2016-12-08T09:46:06.251Z,98.93
2016-12-08T09:46:46.763Z,99.02
2016-12-08T09:47:27.258Z,98.74
2016-12-08T09:48:07.777Z,98.88
2016-12-08T09:48:48.277Z,99.02
2016-12-08T09:49:28.844Z,98.98
2016-12-08T09:50:09.396Z,98.79
2016-12-08T09:50:49.879Z,99.17
2016-12-08T09:51:30.344Z,99.17
2016-12-08T09:52:10.861Z,99.12
2016-12-08T09:52:51.368Z,98.6
2016-12-08T09:53:31.962Z,98.74
2016-12-08T09:54:12.433Z,98.98
2016-12-08T09:54:52.902Z,99.22
2016-12-08T09:55:33.379Z,99.27
2016-12-08T09:56:13.870Z,99.17
2016-12-08T09:56:54.382Z,99.17
2016-12-08T09:57:34.870Z,99.17
2016-12-08T09:58:15.359Z,99.08
2016-12-08T09:58:55.835Z,99.08
2016-12-08T09:59:36.380Z,99.08
2016-12-08T10:00:16.880Z,98.69
2016-12-08T10:00:57.402Z,98.79
2016-12-08T10:01:37.874Z,98.88
2016-12-08T10:02:25.038Z,98.79
2016-12-08T10:03:05.545Z,98.69
2016-12-08T10:03:46.035Z,98.79
2016-12-08T10:04:26.460Z,98.69
2016-12-08T10:05:06.961Z,98.79
2016-12-08T10:05:47.480Z,98.88
2016-12-08T10:06:27.969Z,99.36
2016-12-08T10:07:08.473Z,99.46
2016-12-08T10:07:48.965Z,99.17
2016-12-08T10:08:29.429Z,99.17
2016-12-08T10:09:09.916Z,99.08
2016-12-08T10:09:50.423Z,98.79
2016-12-08T10:10:30.880Z,99.08
2016-12-08T10:11:11.368Z,98.79
2016-12-08T10:11:51.865Z,98.88
2016-12-08T10:12:32.338Z,98.88
2016-12-08T10:13:12.774Z,98.88
2016-12-08T10:13:55.115Z,98.88
2016-12-08T10:14:35.554Z,98.98
2016-12-08T10:15:16.119Z,98.69
2016-12-08T10:15:56.585Z,98.88
2016-12-08T10:16:37.907Z,98.88
2016-12-08T10:17:18.412Z,98.98
2016-12-08T10:17:58.918Z,98.79
2016-12-08T10:18:39.388Z,98.98
2016-12-08T10:19:19.873Z,98.79
2016-12-08T10:20:01.132Z,98.69
2016-12-08T10:20:42.268Z,98.88
2016-12-08T10:21:23.413Z,98.79
2016-12-08T10:22:03.868Z,99.27
2016-12-08T10:22:44.351Z,99.55
2016-12-08T10:23:25.730Z,98.98
2016-12-08T10:24:06.242Z,99.27
2016-12-08T10:24:46.712Z,99.08
2016-12-08T10:25:27.164Z,99.17
2016-12-08T10:26:07.641Z,99.08
2016-12-08T10:26:48.137Z,98.88
2016-12-08T10:27:28.598Z,99.17
2016-12-08T10:28:09.110Z,98.98
2016-12-08T10:28:49.583Z,98.98
2016-12-08T10:29:30.092Z,98.69
2016-12-08T10:30:10.594Z,98.79
2016-12-08T10:30:51.114Z,98.98
2016-12-08T10:31:31.532Z,98.79
2016-12-08T10:32:12.007Z,98.79
2016-12-08T10:32:53.324Z,98.98
2016-12-08T10:33:33.801Z,98.98
2016-12-08T10:34:14.302Z,98.88
2016-12-08T10:34:54.793Z,98.79
2016-12-08T10:35:35.264Z,99.08
2016-12-08T10:36:17.630Z,98.88
2016-12-08T10:36:58.128Z,99.36
2016-12-08T10:37:38.613Z,99.36
2016-12-08T10:38:19.095Z,99.55
2016-12-08T10:38:59.578Z,99.36
2016-12-08T10:39:40.072Z,99.08
2016-12-08T10:40:20.576Z,99.08
2016-12-08T10:41:01.075Z,99.27
2016-12-08T10:41:41.569Z,99.65
2016-12-08T10:42:22.076Z,99.46
2016-12-08T10:43:02.567Z,99.74
2016-12-08T10:43:44.815Z,99.55
2016-12-08T10:44:25.335Z,99.84
2016-12-08T10:45:05.820Z,99.65
2016-12-08T10:45:46.391Z,99.65
2016-12-08T10:46:26.844Z,99.74
2016-12-08T10:47:07.351Z,99.84
2016-12-08T10:47:47.809Z,99.84
2016-12-08T10:48:28.308Z,99.65
2016-12-08T10:49:08.802Z,99.27
2016-12-08T10:49:49.306Z,99.17
2016-12-08T10:50:29.820Z,99.36
2016-12-08T10:51:10.373Z,99.17
2016-12-08T10:51:50.880Z,99.08
2016-12-08T10:52:31.358Z,99.08
2016-12-08T10:53:15.618Z,99.27
2016-12-08T10:54:04.696Z,99.17
2016-12-08T10:54:53.018Z,99.08
2016-12-08T10:55:44.112Z,99.08
2016-12-08T10:56:32.902Z,99.46
2016-12-08T10:57:13.398Z,99.08
2016-12-08T10:57:57.026Z,99.36
2016-12-08T10:58:37.597Z,99.22
2016-12-08T10:59:18.899Z,98.98
2016-12-08T10:59:59.384Z,98.94
2016-12-08T11:01:46.682Z,98.84
2016-12-08T11:02:30.271Z,98.74
2016-12-08T11:04:57.540Z,98.46
2016-12-08T11:05:46.062Z,98.55
2016-12-08T11:06:30.574Z,98.27
2016-12-08T11:07:18.726Z,97.79
2016-12-08T11:07:59.948Z,97.7
2016-12-08T11:08:40.962Z,97.41
2016-12-08T11:09:22.382Z,97.13
2016-12-08T11:10:03.081Z,97.03
2016-12-08T11:10:43.565Z,97.03
2016-12-08T11:11:24.058Z,97.13
2016-12-08T11:12:05.072Z,96.65
2016-12-08T11:12:45.585Z,96.75
2016-12-08T11:13:26.070Z,96.46
2016-12-08T11:14:06.568Z,96.94
2016-12-08T11:14:47.056Z,96.75
2016-12-08T11:15:28.252Z,96.46
2016-12-08T11:16:08.790Z,96.55
2016-12-08T11:16:49.422Z,96.55
2016-12-08T11:17:30.533Z,96.36
2016-12-08T11:18:11.875Z,96.65
2016-12-08T11:18:52.377Z,97.22
2016-12-08T11:19:32.956Z,97.13
2016-12-08T11:20:13.471Z,96.94
2016-12-08T11:20:54.011Z,97.22
2016-12-08T11:21:34.490Z,97.22
2016-12-08T11:22:14.983Z,97.13
2016-12-08T11:22:55.491Z,96.65
2016-12-08T11:23:35.947Z,97.22
2016-12-08T11:24:16.432Z,97.13
2016-12-08T11:24:56.936Z,97.13
2016-12-08T11:25:37.426Z,97.31
2016-12-08T11:26:17.906Z,97.89
2016-12-08T11:26:58.381Z,97.31
2016-12-08T11:27:38.881Z,97.41
2016-12-08T11:28:19.352Z,97.41
2016-12-08T11:28:59.857Z,97.41
2016-12-08T11:29:40.352Z,97.41
2016-12-08T11:30:20.852Z,97.79
2016-12-08T11:31:01.415Z,97.99
2016-12-08T11:31:41.914Z,97.79
2016-12-08T11:32:27.382Z,97.6
2016-12-08T11:33:16.737Z,97.7
2016-12-08T11:34:07.411Z,98.27
2016-12-08T11:34:58.292Z,98.27
2016-12-08T11:35:48.567Z,98.65
2016-12-08T11:36:38.604Z,98.08
2016-12-08T11:37:27.592Z,98.74
2016-12-08T11:38:20.945Z,98.84
2016-12-08T11:39:08.773Z,98.55
2016-12-08T11:40:00.162Z,98.84
2016-12-08T11:40:42.873Z,98.88
2016-12-08T11:41:29.347Z,98.98
2016-12-08T11:42:10.275Z,98.65
2016-12-08T11:42:51.319Z,98.84
2016-12-08T11:43:32.291Z,98.88
2016-12-08T11:44:16.982Z,98.88
2016-12-08T11:44:59.584Z,98.69
2016-12-08T11:45:40.531Z,98.6
2016-12-08T11:46:21.129Z,98.6
2016-12-08T11:47:01.867Z,98.69
2016-12-08T11:47:46.391Z,98.69
2016-12-08T11:48:27.052Z,98.79
2016-12-08T11:49:07.537Z,99.08
2016-12-08T11:49:48.020Z,99.08
2016-12-08T11:50:28.536Z,99.17
2016-12-08T11:51:09.069Z,98.98
2016-12-08T11:51:49.574Z,98.98
2016-12-08T11:52:30.079Z,98.98
2016-12-08T11:53:10.573Z,98.98
2016-12-08T11:53:51.067Z,98.88
2016-12-08T11:54:31.549Z,98.88
2016-12-08T11:55:12.043Z,98.6
2016-12-08T11:55:52.554Z,99.17
2016-12-08T11:56:33.018Z,99.27
2016-12-08T11:57:13.510Z,99.27
2016-12-08T11:57:54.051Z,99.27
2016-12-08T11:58:34.517Z,99.74
2016-12-08T11:59:14.991Z,99.46
2016-12-08T11:59:55.505Z,99.65
2016-12-08T12:00:35.993Z,99.46
2016-12-08T12:01:16.528Z,99.55
2016-12-08T12:01:57.001Z,99.46
2016-12-08T12:02:37.466Z,99.46
2016-12-08T12:03:17.969Z,98.98
2016-12-08T12:03:58.532Z,98.98
2016-12-08T12:04:39.157Z,98.6
2016-12-08T12:05:19.638Z,98.79
2016-12-08T12:06:00.138Z,99.08
2016-12-08T12:06:40.662Z,98.79
2016-12-08T12:07:26.129Z,98.6
2016-12-08T12:08:10.728Z,98.5
2016-12-08T12:08:51.263Z,98.6
2016-12-08T12:09:31.779Z,98.88
2016-12-08T12:10:12.240Z,98.79
2016-12-08T12:10:52.728Z,98.69
2016-12-08T12:11:33.232Z,98.32
2016-12-08T12:12:13.713Z,98.6
2016-12-08T12:12:54.221Z,98.32
2016-12-08T12:13:34.702Z,98.22
2016-12-08T12:14:15.226Z,97.93
2016-12-08T12:14:55.717Z,97.74
2016-12-08T12:15:36.171Z,98.03
2016-12-08T12:16:16.689Z,97.74
2016-12-08T12:16:57.296Z,97.84
2016-12-08T12:17:37.841Z,97.84
2016-12-08T12:18:18.334Z,97.84
2016-12-08T12:18:58.856Z,97.65
2016-12-08T12:19:39.352Z,97.65
2016-12-08T12:20:19.891Z,97.93
2016-12-08T12:21:00.401Z,98.13
2016-12-08T12:21:40.895Z,98.32
2016-12-08T12:22:21.397Z,98.41
2016-12-08T12:23:01.905Z,98.41
2016-12-08T12:23:42.484Z,98.41
2016-12-08T12:24:22.996Z,98.03
2016-12-08T12:25:03.533Z,98.22
2016-12-08T12:25:44.027Z,98.03
2016-12-08T12:26:24.535Z,98.41
2016-12-08T12:27:05.055Z,98.32
2016-12-08T12:27:45.864Z,98.41
2016-12-08T12:28:26.371Z,98.22
2016-12-08T12:29:06.872Z,98.22
2016-12-08T12:29:47.422Z,98.13
2016-12-08T12:30:27.917Z,98.41
2016-12-08T12:31:08.419Z,98.32
2016-12-08T12:31:48.919Z,98.03
2016-12-08T12:32:29.427Z,98.22
2016-12-08T12:33:09.989Z,98.13
2016-12-08T12:33:50.503Z,98.32
2016-12-08T12:34:31.006Z,98.6
2016-12-08T12:35:11.502Z,98.32
2016-12-08T12:35:51.955Z,98.22
2016-12-08T12:36:32.438Z,98.03
2016-12-08T12:37:12.937Z,98.6
2016-12-08T12:37:53.458Z,98.6
2016-12-08T12:38:33.920Z,98.5
2016-12-08T12:39:14.451Z,98.88
2016-12-08T12:39:54.905Z,98.5
2016-12-08T12:40:35.433Z,98.79
2016-12-08T12:42:34.657Z,98.32
2016-12-08T12:43:15.186Z,98.41
2016-12-08T12:43:55.608Z,98.41
2016-12-08T12:44:36.325Z,98.6
2016-12-08T12:45:16.598Z,98.32
2016-12-08T12:45:57.097Z,98.22
2016-12-08T12:46:37.587Z,98.13
2016-12-08T12:47:18.132Z,98.69
2016-12-08T12:47:58.612Z,98.22
2016-12-08T12:48:39.143Z,98.22
2016-12-08T12:49:19.625Z,98.69
2016-12-08T12:50:00.117Z,98.41
2016-12-08T12:50:40.598Z,98.69
2016-12-08T12:51:21.101Z,98.98
2016-12-08T12:52:01.579Z,98.69
2016-12-08T12:52:42.093Z,98.69
2016-12-08T12:53:22.591Z,98.79
2016-12-08T12:54:03.110Z,98.55
2016-12-08T12:54:43.588Z,98.55
2016-12-08T12:55:24.213Z,98.69
2016-12-08T12:56:04.721Z,98.79
2016-12-08T12:56:45.218Z,98.6
2016-12-08T12:57:25.679Z,98.98
2016-12-08T12:58:06.168Z,98.65
2016-12-08T12:58:46.656Z,98.74
2016-12-08T12:59:27.152Z,98.79
2016-12-08T13:00:07.631Z,98.93
2016-12-08T13:00:48.111Z,99.46
2016-12-08T13:01:28.620Z,99.27
2016-12-08T13:02:09.159Z,99.41
2016-12-08T13:02:49.665Z,99.17
2016-12-08T13:03:30.207Z,98.69
2016-12-08T13:04:10.731Z,98.98
2016-12-08T13:04:52.162Z,98.98
2016-12-08T13:05:32.634Z,99.02
2016-12-08T13:06:13.246Z,98.6
2016-12-08T13:06:53.734Z,99.17
2016-12-08T13:07:34.193Z,98.93
2016-12-08T13:08:14.834Z,98.98
2016-12-08T13:08:56.029Z,98.98
2016-12-08T13:09:36.472Z,98.93
2016-12-08T13:10:16.968Z,98.74
2016-12-08T13:10:57.740Z,98.74
2016-12-08T13:11:38.404Z,98.83
2016-12-08T13:12:18.899Z,98.74
2016-12-08T13:12:59.471Z,98.83
2016-12-08T13:13:39.954Z,98.74
2016-12-08T13:14:20.418Z,98.93
2016-12-08T13:15:00.945Z,98.83
2016-12-08T13:15:41.471Z,98.83
2016-12-08T13:16:22.065Z,98.65
2016-12-08T13:17:02.587Z,98.93
2016-12-08T13:17:43.124Z,98.74
2016-12-08T13:18:23.639Z,98.74
2016-12-08T13:19:04.128Z,98.93
2016-12-08T13:19:44.561Z,98.74
2016-12-08T13:20:25.092Z,98.93
2016-12-08T13:21:05.546Z,98.74
2016-12-08T13:21:46.011Z,98.83
2016-12-08T13:22:26.532Z,98.65
2016-12-08T13:23:07.000Z,98.93
2016-12-08T13:23:47.499Z,99.22
2016-12-08T13:24:27.957Z,98.93
2016-12-08T13:25:08.416Z,99.12
2016-12-08T13:25:49.128Z,99.69
2016-12-08T13:26:29.752Z,99.6
2016-12-08T13:27:10.249Z,99.79
2016-12-08T13:27:50.713Z,99.69
2016-12-08T13:28:31.166Z,99.6
2016-12-08T13:29:11.680Z,99.41
2016-12-08T13:29:52.183Z,99.22
2016-12-08T13:30:32.610Z,99.79
2016-12-08T13:31:13.169Z,99.79
2016-12-08T13:31:53.652Z,99.98
2016-12-08T13:32:34.180Z,99.99
2016-12-08T13:33:14.666Z,99.99
2016-12-08T13:33:55.138Z,99.98
2016-12-08T13:34:36.764Z,99.99
2016-12-08T13:35:17.250Z,99.99
2016-12-08T13:35:57.720Z,99.99
2016-12-08T13:36:38.287Z,99.99
2016-12-08T13:37:18.778Z,99.99
2016-12-08T13:37:59.217Z,99.99
2016-12-08T13:38:39.688Z,99.99
2016-12-08T13:39:20.201Z,99.99
2016-12-08T13:40:00.674Z,99.99
2016-12-08T13:40:41.117Z,99.99
2016-12-08T13:41:21.610Z,99.99
2016-12-08T13:42:02.064Z,99.99
2016-12-08T13:42:42.507Z,99.99
2016-12-08T13:43:23.002Z,99.99
2016-12-08T13:44:03.503Z,99.99
2016-12-08T13:44:44.032Z,99.99
2016-12-08T13:45:24.485Z,99.99
2016-12-08T13:46:04.973Z,99.99
2016-12-08T13:46:45.483Z,99.99
2016-12-08T13:47:25.942Z,99.99
2016-12-08T13:48:06.494Z,99.99
2016-12-08T13:48:46.953Z,99.99
2016-12-08T13:49:27.421Z,99.99
2016-12-08T13:50:08.407Z,99.99
2016-12-08T13:50:48.889Z,99.99
2016-12-08T13:51:29.419Z,99.99
2016-12-08T13:52:09.905Z,99.99
2016-12-08T13:52:51.903Z,99.99
2016-12-08T13:53:32.378Z,99.99
2016-12-08T13:54:12.829Z,99.99
2016-12-08T13:54:53.326Z,99.99
2016-12-08T13:55:33.861Z,99.99
2016-12-08T13:56:14.370Z,99.99
2016-12-08T13:56:54.857Z,99.99
2016-12-08T13:57:35.321Z,99.99
2016-12-08T13:58:15.786Z,99.99
2016-12-08T13:58:56.290Z,99.99
2016-12-08T13:59:36.722Z,99.99
2016-12-08T14:00:17.214Z,99.99
2016-12-08T14:00:57.694Z,99.99
2016-12-08T14:01:38.188Z,99.99
2016-12-08T14:02:18.847Z,99.99
2016-12-08T14:02:59.394Z,99.99
2016-12-08T14:03:44.198Z,99.99
2016-12-08T14:04:24.636Z,99.99
2016-12-08T14:05:05.145Z,99.99
2016-12-08T14:05:45.632Z,99.99
2016-12-08T14:06:26.132Z,99.99
2016-12-08T14:07:06.709Z,99.99
2016-12-08T14:07:47.193Z,99.99
2016-12-08T14:08:27.714Z,99.99
2016-12-08T14:09:08.165Z,99.99
2016-12-08T14:09:48.741Z,99.99
2016-12-08T14:10:29.290Z,99.99
2016-12-08T14:11:09.743Z,99.99
2016-12-08T14:11:50.225Z,99.99
2016-12-08T14:12:30.722Z,99.99
2016-12-08T14:13:11.219Z,99.99
2016-12-08T14:13:51.658Z,99.99
2016-12-08T14:14:32.141Z,99.99
2016-12-08T14:15:12.606Z,99.99
2016-12-08T14:15:53.106Z,99.99
2016-12-08T14:16:33.620Z,99.99
2016-12-08T14:17:14.124Z,99.99
2016-12-08T14:17:54.542Z,99.99
2016-12-08T14:18:35.029Z,99.99
2016-12-08T14:19:15.530Z,99.99
2016-12-08T14:19:56.027Z,99.99
2016-12-08T14:20:36.513Z,99.99
2016-12-08T14:21:17.016Z,99.99
2016-12-08T14:21:57.442Z,99.99
2016-12-08T14:22:37.916Z,99.99
2016-12-08T14:23:18.408Z,99.99
2016-12-08T14:23:58.907Z,99.99
2016-12-08T14:24:39.366Z,99.99
2016-12-08T14:25:19.898Z,99.99
2016-12-08T14:26:00.391Z,99.99
2016-12-08T14:26:40.898Z,99.99
2016-12-08T14:27:21.400Z,99.99
2016-12-08T14:28:01.901Z,99.99
2016-12-08T14:28:42.385Z,99.99
2016-12-08T14:29:22.848Z,99.99
2016-12-08T14:30:03.335Z,99.99
2016-12-08T14:30:43.821Z,99.99
2016-12-08T14:31:24.389Z,99.99
2016-12-08T14:32:04.884Z,99.99
2016-12-08T14:32:45.378Z,99.99
2016-12-08T14:33:27.887Z,99.99
2016-12-08T14:34:15.528Z,99.99
2016-12-08T14:35:05.928Z,99.99
2016-12-08T14:35:57.134Z,99.99
2016-12-08T14:36:45.499Z,99.99
2016-12-08T14:37:31.735Z,99.99
2016-12-08T14:38:15.777Z,99.99
2016-12-08T14:39:02.500Z,99.99
2016-12-08T14:39:49.633Z,99.99
2016-12-08T14:40:35.411Z,99.99
2016-12-08T14:41:15.933Z,99.99
2016-12-08T14:41:56.396Z,99.99
2016-12-08T14:42:36.887Z,99.99
2016-12-08T14:43:17.377Z,99.99
2016-12-08T14:43:57.843Z,99.99
2016-12-08T14:44:38.352Z,99.99
2016-12-08T14:45:18.839Z,99.99
2016-12-08T14:45:59.330Z,99.99
2016-12-08T14:46:39.864Z,99.99
2016-12-08T14:47:20.345Z,99.99
2016-12-08T14:48:00.843Z,99.99
2016-12-08T14:48:41.414Z,99.99
2016-12-08T14:49:21.901Z,99.99
2016-12-08T14:50:02.389Z,99.99
2016-12-08T14:50:42.890Z,99.99
2016-12-08T14:51:23.399Z,99.99
2016-12-08T14:52:03.906Z,99.99
2016-12-08T14:52:44.431Z,99.99
2016-12-08T14:53:24.958Z,99.99
2016-12-08T14:54:05.486Z,99.99
2016-12-08T14:54:46.010Z,99.99
2016-12-08T14:55:26.516Z,99.99
2016-12-08T14:56:07.079Z,99.99
2016-12-08T14:56:47.589Z,99.99
2016-12-08T14:57:28.059Z,99.99
2016-12-08T14:58:08.592Z,99.99
2016-12-08T14:58:49.121Z,99.99
2016-12-08T14:59:29.544Z,99.99
2016-12-08T15:00:10.044Z,99.99
2016-12-08T15:00:50.582Z,99.99
2016-12-08T15:01:31.071Z,99.99
2016-12-08T15:02:11.571Z,99.99
2016-12-08T15:02:53.327Z,99.99
2016-12-08T15:03:35.220Z,99.99
2016-12-08T15:04:17.163Z,99.99
2016-12-08T15:04:58.350Z,99.99
2016-12-08T15:05:39.414Z,99.99
2016-12-08T15:06:21.243Z,99.99
2016-12-08T15:07:02.916Z,99.99
2016-12-08T15:07:43.840Z,99.99
2016-12-08T15:08:24.908Z,99.99
2016-12-08T15:09:06.428Z,99.99
2016-12-08T15:09:48.095Z,99.99
2016-12-08T15:10:29.674Z,99.99
2016-12-08T15:11:10.595Z,99.99
2016-12-08T15:11:51.508Z,99.99
2016-12-08T15:12:33.271Z,99.99
2016-12-08T15:13:14.180Z,99.99
2016-12-08T15:13:55.142Z,99.99
2016-12-08T15:14:36.012Z,99.99
2016-12-08T15:15:17.319Z,99.99
2016-12-08T15:15:59.268Z,99.99
2016-12-08T15:16:40.138Z,99.99
2016-12-08T15:17:21.056Z,99.99
2016-12-08T15:18:03.305Z,99.99
2016-12-08T15:18:44.204Z,99.99
2016-12-08T15:19:25.108Z,99.99
2016-12-08T15:20:06.926Z,99.99
2016-12-08T15:20:47.826Z,99.99
2016-12-08T15:21:28.827Z,99.99
2016-12-08T15:22:09.837Z,99.99
2016-12-08T15:22:50.759Z,99.99
2016-12-08T15:23:31.764Z,99.99
2016-12-08T15:24:12.765Z,99.99
2016-12-08T15:24:55.243Z,99.99
2016-12-08T15:25:36.167Z,99.99
2016-12-08T15:26:17.274Z,99.99
2016-12-08T15:26:58.184Z,99.99
2016-12-08T15:27:39.093Z,99.99
2016-12-08T15:28:20.010Z,99.99
2016-12-08T15:29:00.967Z,99.99
2016-12-08T15:29:41.925Z,99.99
2016-12-08T15:30:22.881Z,99.99
2016-12-08T15:31:04.678Z,99.99
2016-12-08T15:31:45.566Z,99.99
2016-12-08T15:32:28.497Z,99.99
2016-12-08T15:33:09.534Z,99.99
2016-12-08T15:33:50.867Z,99.99
2016-12-08T15:34:32.590Z,99.99
2016-12-08T15:35:13.095Z,99.99
2016-12-08T15:35:53.588Z,99.99
2016-12-08T15:36:34.101Z,99.99
2016-12-08T15:37:14.617Z,99.99
2016-12-08T15:37:55.159Z,99.99
2016-12-08T15:38:35.703Z,99.99
2016-12-08T15:39:21.850Z,99.99
2016-12-08T15:40:02.693Z,99.99
2016-12-08T15:40:43.639Z,99.99
2016-12-08T15:41:24.713Z,99.99
2016-12-08T15:42:06.425Z,99.99
2016-12-08T15:42:47.352Z,99.99
2016-12-08T15:43:28.386Z,99.99
2016-12-08T15:44:10.261Z,99.99
2016-12-08T15:44:51.174Z,99.99
2016-12-08T15:45:32.113Z,99.99
2016-12-08T15:46:13.120Z,99.99
2016-12-08T15:46:54.950Z,99.99
2016-12-08T15:47:35.956Z,99.99
2016-12-08T15:48:19.127Z,99.99
2016-12-08T15:49:00.123Z,99.99
2016-12-08T15:49:41.519Z,99.99
2016-12-08T15:50:22.026Z,99.99
2016-12-08T15:51:02.543Z,99.99
2016-12-08T15:51:43.011Z,99.99
2016-12-08T15:52:29.252Z,99.99
2016-12-08T15:53:09.877Z,99.99
2016-12-08T15:53:50.377Z,99.99
2016-12-08T15:54:30.882Z,99.99
2016-12-08T15:55:11.810Z,99.99
2016-12-08T15:55:52.349Z,99.99
2016-12-08T15:56:32.849Z,99.99
2016-12-08T15:57:13.435Z,99.99
2016-12-08T15:57:53.959Z,99.99
2016-12-08T15:58:34.468Z,99.99
2016-12-08T15:59:14.978Z,99.99
2016-12-08T15:59:55.465Z,99.99
2016-12-08T16:00:36.028Z,99.99
2016-12-08T16:01:16.553Z,99.99
2016-12-08T16:01:57.043Z,99.99
2016-12-08T16:02:37.495Z,99.99
2016-12-08T16:03:18.001Z,99.99
2016-12-08T16:03:58.499Z,99.99
2016-12-08T16:04:38.987Z,99.99
2016-12-08T16:05:19.529Z,99.99
2016-12-08T16:05:59.980Z,99.99
2016-12-08T16:06:40.492Z,99.99
2016-12-08T16:07:20.964Z,99.99
2016-12-08T16:08:01.478Z,99.99
2016-12-08T16:08:41.958Z,99.99
2016-12-08T16:09:22.484Z,99.99
2016-12-08T16:10:02.965Z,99.99
2016-12-08T16:10:43.449Z,99.99
2016-12-08T16:11:23.954Z,99.99
2016-12-08T16:12:04.472Z,99.99
2016-12-08T16:12:44.908Z,99.99
2016-12-08T16:13:25.401Z,99.99
2016-12-08T16:14:05.918Z,99.99
2016-12-08T16:14:46.505Z,99.99
2016-12-08T16:15:26.902Z,99.99
2016-12-08T16:16:07.383Z,99.99
2016-12-08T16:16:47.849Z,99.99
2016-12-08T16:17:28.329Z,99.99
2016-12-08T16:18:08.836Z,99.99
2016-12-08T16:18:49.299Z,99.99
2016-12-08T16:19:29.792Z,99.99
2016-12-08T16:20:10.277Z,99.99
2016-12-08T16:20:50.800Z,99.99
2016-12-08T16:21:31.267Z,99.99
2016-12-08T16:22:11.716Z,99.99
2016-12-08T16:22:52.213Z,99.99
2016-12-08T16:23:32.755Z,99.99
2016-12-08T16:24:13.186Z,99.99
2016-12-08T16:24:53.693Z,99.99
2016-12-08T16:25:35.005Z,99.99
2016-12-08T16:26:15.527Z,99.99
2016-12-08T16:26:55.976Z,99.99
2016-12-08T16:27:36.494Z,99.99
2016-12-08T16:28:16.970Z,99.99
2016-12-08T16:28:57.417Z,99.99
2016-12-08T16:29:37.915Z,99.99
2016-12-08T16:30:18.396Z,99.99
2016-12-08T16:30:58.893Z,99.99
2016-12-08T16:31:39.387Z,99.99
2016-12-08T16:32:19.888Z,99.99
2016-12-08T16:33:00.381Z,99.99
2016-12-08T16:33:40.852Z,99.99
2016-12-08T16:34:21.325Z,99.99
2016-12-08T16:35:01.952Z,99.99
2016-12-08T16:35:42.433Z,99.99
2016-12-08T16:36:22.909Z,99.99
2016-12-08T16:37:03.425Z,99.99
2016-12-08T16:37:44.001Z,99.99
2016-12-08T16:38:24.542Z,99.99
2016-12-08T16:39:05.119Z,99.99
2016-12-08T16:39:45.929Z,99.99
2016-12-08T16:40:26.619Z,99.99
2016-12-08T16:41:07.318Z,99.99
2016-12-08T16:41:48.061Z,99.99
2016-12-08T16:42:28.822Z,99.99
2016-12-08T16:43:09.676Z,99.99
2016-12-08T16:43:50.446Z,99.99
2016-12-08T16:44:31.247Z,99.99
2016-12-08T16:45:11.973Z,99.99
2016-12-08T16:45:52.728Z,99.99
2016-12-08T16:46:33.477Z,99.99
2016-12-08T16:47:14.373Z,99.99
2016-12-08T16:47:55.561Z,99.99
2016-12-08T16:48:36.101Z,99.99
2016-12-08T16:49:16.567Z,99.99
2016-12-08T16:49:57.071Z,99.99
2016-12-08T16:50:37.542Z,99.99
2016-12-08T16:51:18.112Z,99.99
2016-12-08T16:51:58.565Z,99.99
2016-12-08T16:52:39.093Z,99.99
2016-12-08T16:53:19.614Z,99.99
2016-12-08T16:54:00.060Z,99.99
2016-12-08T16:54:40.514Z,99.99
2016-12-08T16:55:21.026Z,99.99
2016-12-08T16:56:01.479Z,99.99
2016-12-08T16:56:41.949Z,99.99
2016-12-08T16:57:22.432Z,99.99
2016-12-08T16:58:02.937Z,99.99
2016-12-08T16:58:43.425Z,99.99
2016-12-08T16:59:23.946Z,99.99
2016-12-08T17:00:04.395Z,99.99
2016-12-08T17:00:44.906Z,99.99
2016-12-08T17:01:25.468Z,99.99
2016-12-08T17:02:05.954Z,99.99
2016-12-08T17:02:46.419Z,99.99
2016-12-08T17:03:26.969Z,99.99
2016-12-08T17:04:07.499Z,99.99
2016-12-08T17:04:48.027Z,99.99
2016-12-08T17:05:28.563Z,99.99
2016-12-08T17:06:09.097Z,99.99
2016-12-08T17:06:49.531Z,99.99
2016-12-08T17:07:30.022Z,99.99
2016-12-08T17:08:10.571Z,99.99
2016-12-08T17:08:51.100Z,99.84
2016-12-08T17:09:31.645Z,99.74
2016-12-08T17:10:12.136Z,99.55
2016-12-08T17:10:52.642Z,99.55
2016-12-08T17:11:33.136Z,99.74
2016-12-08T17:12:13.678Z,99.45
2016-12-08T17:12:54.163Z,98.79
2016-12-08T17:13:34.684Z,98.69
2016-12-08T17:14:15.192Z,98.69
2016-12-08T17:14:55.622Z,98.97
2016-12-08T17:15:36.103Z,99.16
2016-12-08T17:16:16.627Z,98.6
2016-12-08T17:16:57.085Z,98.6
2016-12-08T17:17:37.587Z,98.6
2016-12-08T17:18:18.101Z,98.5
2016-12-08T17:18:58.565Z,98.41
2016-12-08T17:19:39.057Z,98.41
2016-12-08T17:20:19.571Z,98.6
2016-12-08T17:21:00.105Z,98.03
2016-12-08T17:21:40.510Z,98.31
2016-12-08T17:22:21.007Z,98.41
2016-12-08T17:23:01.512Z,98.22
2016-12-08T17:23:42.036Z,98.12
2016-12-08T17:24:22.572Z,97.83
2016-12-08T17:25:03.027Z,98.12
2016-12-08T17:25:43.529Z,97.55
2016-12-08T17:26:24.001Z,97.55
2016-12-08T17:27:04.471Z,97.93
2016-12-08T17:27:44.949Z,97.55
2016-12-08T17:28:25.520Z,97.64
2016-12-08T17:29:05.976Z,97.64
2016-12-08T17:29:46.486Z,97.55
2016-12-08T17:30:27.008Z,97.64
2016-12-08T17:31:07.425Z,97.64
2016-12-08T17:31:47.947Z,97.55
2016-12-08T17:32:28.414Z,96.98
2016-12-08T17:33:08.897Z,97.08
2016-12-08T17:33:49.340Z,97.64
2016-12-08T17:34:29.841Z,97.08
2016-12-08T17:35:10.310Z,97.45
2016-12-08T17:35:50.801Z,97.08
2016-12-08T17:36:31.268Z,97.45
2016-12-08T17:37:11.774Z,97.45
2016-12-08T17:37:52.260Z,97.17
2016-12-08T17:38:32.770Z,96.98
2016-12-08T17:39:13.217Z,96.98
2016-12-08T17:39:53.734Z,97.08
2016-12-08T17:40:34.186Z,96.5
2016-12-08T17:41:14.689Z,96.5
2016-12-08T17:41:55.175Z,97.08
2016-12-08T17:42:35.707Z,97.08
2016-12-08T17:43:16.208Z,97.08
2016-12-08T17:43:56.654Z,96.41
2016-12-08T17:44:37.157Z,96.22
2016-12-08T17:45:17.653Z,96.79
2016-12-08T17:45:58.084Z,96.5
2016-12-08T17:46:38.644Z,96.79
2016-12-08T17:47:19.089Z,96.5
2016-12-08T17:47:59.553Z,96.6
2016-12-08T17:48:40.011Z,96.89
2016-12-08T17:49:20.565Z,96.6
2016-12-08T17:50:00.985Z,96.41
2016-12-08T17:50:41.469Z,96.03
2016-12-08T17:51:21.975Z,95.94
2016-12-08T17:52:02.420Z,95.94
2016-12-08T17:52:42.907Z,95.94
2016-12-08T17:53:23.359Z,96.22
2016-12-08T17:54:03.836Z,96.31
2016-12-08T17:54:44.298Z,96.22
2016-12-08T17:55:24.813Z,96.22
2016-12-08T17:56:05.283Z,96.12
2016-12-08T17:56:45.757Z,95.94
2016-12-08T17:57:26.260Z,95.65
2016-12-08T17:58:06.758Z,95.17
2016-12-08T17:58:47.272Z,95.65
2016-12-08T17:59:27.722Z,95.75
2016-12-08T18:00:08.196Z,95.56
2016-12-08T18:00:48.669Z,95.36
2016-12-08T18:01:29.177Z,94.89
2016-12-08T18:02:09.653Z,95.17
2016-12-08T18:02:50.180Z,95.27
2016-12-08T18:03:30.674Z,94.98
2016-12-08T18:04:11.183Z,95.36
2016-12-08T18:04:51.645Z,95.36
2016-12-08T18:05:32.153Z,95.56
2016-12-08T18:06:12.646Z,95.84
2016-12-08T18:06:53.138Z,96.31
2016-12-08T18:07:33.596Z,96.79
2016-12-08T18:08:14.128Z,96.5
2016-12-08T18:08:54.641Z,97.08
2016-12-08T18:09:35.123Z,96.89
2016-12-08T18:10:15.593Z,96.98
2016-12-08T18:10:56.064Z,97.74
2016-12-08T18:11:36.575Z,97.45
2016-12-08T18:12:17.101Z,97.55
2016-12-08T18:12:57.558Z,97.64
2016-12-08T18:13:38.058Z,98.03
2016-12-08T18:14:18.553Z,97.93
2016-12-08T18:14:59.027Z,97.74
2016-12-08T18:15:39.504Z,98.31
2016-12-08T18:16:19.997Z,97.55